createdAt,value
2018-04-12T00:01:06.778Z,4.90
2018-04-12T00:03:34.243Z,4.90
2018-04-12T00:06:01.730Z,4.90
2018-04-12T00:08:29.183Z,5.00
2018-04-12T00:10:56.644Z,5.00
2018-04-12T00:13:24.118Z,5.20
2018-04-12T00:15:52.346Z,5.20
2018-04-12T00:18:19.808Z,5.30
2018-04-12T00:20:47.278Z,5.30
2018-04-12T00:23:14.734Z,5.30
2018-04-12T00:25:42.185Z,5.40
2018-04-12T00:28:09.637Z,5.50
2018-04-12T00:30:37.112Z,5.50
2018-04-12T00:33:04.577Z,5.60
2018-04-12T00:35:32.033Z,5.40
2018-04-12T00:37:59.493Z,5.30
2018-04-12T00:40:26.972Z,5.30
2018-04-12T00:42:55.201Z,5.30
2018-04-12T00:45:22.672Z,5.30
2018-04-12T00:47:50.157Z,5.30
2018-04-12T00:50:17.612Z,5.30
2018-04-12T00:52:45.084Z,5.40
2018-04-12T00:55:12.536Z,5.50
2018-04-12T00:57:39.992Z,5.60
2018-04-12T01:00:07.435Z,5.60
2018-04-12T01:02:35.660Z,5.70
2018-04-12T01:05:03.156Z,5.60
2018-04-12T01:07:30.614Z,5.70
2018-04-12T01:09:58.072Z,5.70
2018-04-12T01:12:25.655Z,5.70
2018-04-12T01:14:53.882Z,5.70
2018-04-12T01:17:21.348Z,5.60
2018-04-12T01:19:48.806Z,5.60
2018-04-12T01:22:16.289Z,5.60
2018-04-12T01:24:44.523Z,5.70
2018-04-12T01:27:11.976Z,5.70
2018-04-12T01:29:39.436Z,5.70
2018-04-12T01:32:06.909Z,5.60
2018-04-12T01:34:34.356Z,5.60
2018-04-12T01:37:02.190Z,5.70
2018-04-12T01:39:29.697Z,5.70
2018-04-12T01:41:57.162Z,5.70
2018-04-12T01:44:24.616Z,5.80
2018-04-12T01:46:52.073Z,5.70
2018-04-12T01:49:19.520Z,5.80
2018-04-12T01:51:46.972Z,5.90
2018-04-12T01:54:14.446Z,5.90
2018-04-12T01:56:41.891Z,5.90
2018-04-12T01:59:09.358Z,5.90
2018-04-12T02:01:37.586Z,5.60
2018-04-12T02:04:05.067Z,5.60
2018-04-12T02:06:32.533Z,5.50
2018-04-12T02:09:00.000Z,5.50
2018-04-12T02:11:27.456Z,5.30
2018-04-12T02:13:54.972Z,5.30
2018-04-12T02:16:22.436Z,5.30
2018-04-12T02:18:49.914Z,5.30
2018-04-12T02:21:17.370Z,5.20
2018-04-12T02:23:44.856Z,5.30
2018-04-12T02:26:13.073Z,5.30
2018-04-12T02:28:40.532Z,5.30
2018-04-12T02:31:08.000Z,5.40
2018-04-12T02:33:35.465Z,5.50
2018-04-12T02:36:02.967Z,5.60
2018-04-12T02:38:31.188Z,5.40
2018-04-12T02:40:58.644Z,5.40
2018-04-12T02:43:26.123Z,5.40
2018-04-12T02:45:53.572Z,5.40
2018-04-12T02:48:21.041Z,5.20
2018-04-12T02:50:48.514Z,5.20
2018-04-12T02:53:16.740Z,5.10
2018-04-12T02:55:44.197Z,5.10
2018-04-12T02:58:11.657Z,5.10
2018-04-12T03:00:39.116Z,5.10
2018-04-12T03:03:06.591Z,5.00
2018-04-12T03:05:34.044Z,5.00
2018-04-12T03:08:01.532Z,4.90
2018-04-12T03:10:29.771Z,4.80
2018-04-12T03:12:57.221Z,4.80
2018-04-12T03:15:24.679Z,4.90
2018-04-12T03:17:52.200Z,4.90
2018-04-12T03:20:19.661Z,4.80
2018-04-12T03:22:47.116Z,4.80
2018-04-12T03:25:14.572Z,4.70
2018-04-12T03:27:42.072Z,4.70
2018-04-12T03:30:09.540Z,4.70
2018-04-12T03:32:37.016Z,4.70
2018-04-12T03:35:04.472Z,4.60
2018-04-12T03:37:31.932Z,4.60
2018-04-12T03:39:59.397Z,4.60
2018-04-12T03:42:27.615Z,4.60
2018-04-12T03:44:55.069Z,4.50
2018-04-12T03:47:22.524Z,4.50
2018-04-12T03:49:49.992Z,4.60
2018-04-12T03:52:17.446Z,4.60
2018-04-12T03:54:44.909Z,4.60
2018-04-12T03:57:12.356Z,4.60
2018-04-12T03:59:39.810Z,4.50
2018-04-12T04:02:07.268Z,4.50
2018-04-12T04:04:34.732Z,4.50
2018-04-12T04:07:02.185Z,4.50
2018-04-12T04:09:29.647Z,4.50
2018-04-12T04:11:57.100Z,4.50
2018-04-12T04:14:36.231Z,4.50
2018-04-12T04:17:15.427Z,4.50
2018-04-12T04:19:55.325Z,4.60
2018-04-12T04:22:23.602Z,4.60
2018-04-12T04:24:51.061Z,4.50
2018-04-12T04:27:18.513Z,4.50
2018-04-12T04:29:45.980Z,4.60
2018-04-12T04:32:13.456Z,4.60
2018-04-12T04:34:40.916Z,4.60
2018-04-12T04:37:08.368Z,4.60
2018-04-12T04:39:35.817Z,4.60
2018-04-12T04:42:03.268Z,4.70
2018-04-12T04:44:30.715Z,4.70
2018-04-12T04:46:58.945Z,4.80
2018-04-12T04:49:26.404Z,4.80
2018-04-12T04:51:53.874Z,4.90
2018-04-12T04:54:21.352Z,4.90
2018-04-12T04:56:48.816Z,4.90
2018-04-12T04:59:16.288Z,5.00
2018-04-12T05:01:43.743Z,4.90
2018-04-12T05:04:11.219Z,4.90
2018-04-12T05:06:38.669Z,5.00
2018-04-12T05:09:06.129Z,5.00
2018-04-12T05:11:33.586Z,5.00
2018-04-12T05:14:01.045Z,5.00
2018-04-12T05:16:28.492Z,5.00
2018-04-12T05:18:55.947Z,5.00
2018-04-12T05:21:23.407Z,5.10
2018-04-12T05:23:50.864Z,5.10
2018-04-12T05:26:18.336Z,5.20
2018-04-12T05:28:50.216Z,5.40
2018-04-12T05:31:17.693Z,5.40
2018-04-12T05:33:45.157Z,5.50
2018-04-12T05:36:12.621Z,5.60
2018-04-12T05:38:40.095Z,5.50
2018-04-12T05:41:07.553Z,5.60
2018-04-12T05:43:35.000Z,5.60
2018-04-12T05:46:02.567Z,5.80
2018-04-12T05:48:30.051Z,5.80
2018-04-12T05:50:57.820Z,5.80
2018-04-12T05:53:26.091Z,5.90
2018-04-12T05:55:54.361Z,5.90
2018-04-12T05:58:22.592Z,6.00
2018-04-12T06:00:50.057Z,6.00
2018-04-12T06:03:17.567Z,6.10
2018-04-12T06:05:45.025Z,6.10
2018-04-12T06:08:12.546Z,6.20
2018-04-12T06:10:40.004Z,6.30
2018-04-12T06:13:07.480Z,6.40
2018-04-12T06:15:35.737Z,6.40
2018-04-12T06:18:03.209Z,6.40
2018-04-12T06:20:30.714Z,6.50
2018-04-12T06:22:58.803Z,6.60
2018-04-12T06:25:26.912Z,6.60
2018-04-12T06:27:55.161Z,6.70
2018-04-12T06:30:22.624Z,6.70
2018-04-12T06:32:50.155Z,6.70
2018-04-12T06:35:17.607Z,6.70
2018-04-12T06:37:45.064Z,6.80
2018-04-12T06:40:12.524Z,6.90
2018-04-12T06:42:40.010Z,7.00
2018-04-12T06:45:07.462Z,7.10
2018-04-12T06:47:34.945Z,7.20
2018-04-12T06:50:02.398Z,7.30
2018-04-12T06:52:29.999Z,7.40
2018-04-12T06:54:57.446Z,7.40
2018-04-12T06:57:24.923Z,7.50
2018-04-12T06:59:52.380Z,7.60
2018-04-12T07:02:19.843Z,7.60
2018-04-12T07:04:47.291Z,7.80
2018-04-12T07:07:14.796Z,7.80
2018-04-12T07:09:42.249Z,7.90
2018-04-12T07:12:09.695Z,8.00
2018-04-12T07:14:37.169Z,8.10
2018-04-12T07:17:05.394Z,8.20
2018-04-12T07:19:32.876Z,8.10
2018-04-12T07:22:00.333Z,8.20
2018-04-12T07:24:27.785Z,8.20
2018-04-12T07:26:55.258Z,8.30
2018-04-12T07:29:22.705Z,8.40
2018-04-12T07:31:50.168Z,8.40
2018-04-12T07:34:17.629Z,8.60
2018-04-12T07:36:45.092Z,8.60
2018-04-12T07:39:12.553Z,8.60
2018-04-12T07:41:40.012Z,8.70
2018-04-12T07:44:07.466Z,8.80
2018-04-12T07:46:34.918Z,8.90
2018-04-12T07:49:02.387Z,8.90
2018-04-12T07:51:29.858Z,8.90
2018-04-12T07:53:58.069Z,9.00
2018-04-12T07:56:25.527Z,9.00
2018-04-12T07:58:52.981Z,8.90
2018-04-12T08:01:20.432Z,9.00
2018-04-12T08:03:47.895Z,9.10
2018-04-12T08:06:15.656Z,9.20
2018-04-12T08:08:43.105Z,9.40
2018-04-12T08:11:10.576Z,9.50
2018-04-12T08:13:38.024Z,9.70
2018-04-12T08:16:05.490Z,9.70
2018-04-12T08:18:32.967Z,9.70
2018-04-12T08:21:00.430Z,9.60
2018-04-12T08:23:27.886Z,9.70
2018-04-12T08:25:55.386Z,9.80
2018-04-12T08:28:22.827Z,9.80
2018-04-12T08:30:50.323Z,9.80
2018-04-12T08:33:17.781Z,9.90
2018-04-12T08:35:45.250Z,10.00
2018-04-12T08:38:12.716Z,10.00
2018-04-12T08:40:40.172Z,10.10
2018-04-12T08:43:07.638Z,10.10
2018-04-12T08:45:35.099Z,10.20
2018-04-12T08:48:02.568Z,10.30
2018-04-12T08:50:30.032Z,10.50
2018-04-12T08:52:58.300Z,10.60
2018-04-12T08:55:26.561Z,10.70
2018-04-12T08:57:54.112Z,10.70
2018-04-12T09:00:21.604Z,10.80
2018-04-12T09:02:49.847Z,10.90
2018-04-12T09:05:17.307Z,10.80
2018-04-12T09:07:44.784Z,10.90
2018-04-12T09:10:12.244Z,11.00
2018-04-12T09:12:40.490Z,11.30
2018-04-12T09:15:07.949Z,11.30
2018-04-12T09:17:35.411Z,11.30
2018-04-12T09:20:02.880Z,11.30
2018-04-12T09:22:30.337Z,11.40
2018-04-12T09:24:57.812Z,11.50
2018-04-12T09:27:26.073Z,11.70
2018-04-12T09:29:53.545Z,11.70
2018-04-12T09:32:21.776Z,11.80
2018-04-12T09:34:49.256Z,11.70
2018-04-12T09:37:16.731Z,11.80
2018-04-12T09:39:44.392Z,11.90
2018-04-12T09:42:12.622Z,11.90
2018-04-12T09:44:40.086Z,11.90
2018-04-12T09:47:07.543Z,11.90
2018-04-12T09:49:35.017Z,11.90
2018-04-12T09:52:02.491Z,12.00
2018-04-12T09:54:29.955Z,12.20
2018-04-12T09:56:57.408Z,12.40
2018-04-12T09:59:24.882Z,12.50
2018-04-12T10:01:54.992Z,12.50
2018-04-12T10:04:27.161Z,12.50
2018-04-12T10:07:09.517Z,12.40
2018-04-12T10:09:37.005Z,12.50
2018-04-12T10:12:04.470Z,12.60
2018-04-12T10:14:31.961Z,12.60
2018-04-12T10:16:59.442Z,12.50
2018-04-12T10:19:26.932Z,12.40
2018-04-12T10:21:54.398Z,12.40
2018-04-12T10:24:21.869Z,12.50
2018-04-12T10:26:49.320Z,12.50
2018-04-12T10:29:17.545Z,12.60
2018-04-12T10:31:45.008Z,12.60
2018-04-12T10:34:12.487Z,12.70
2018-04-12T10:36:39.952Z,12.80
2018-04-12T10:39:07.408Z,13.00
2018-04-12T10:41:34.911Z,13.00
2018-04-12T10:44:03.135Z,13.20
2018-04-12T10:46:30.604Z,13.20
2018-04-12T10:48:58.847Z,13.60
2018-04-12T10:51:26.349Z,13.50
2018-04-12T10:53:53.826Z,13.80
2018-04-12T10:56:21.294Z,13.70
2018-04-12T10:58:48.757Z,13.60
2018-04-12T11:01:16.227Z,13.60
2018-04-12T11:03:43.729Z,13.70
2018-04-12T11:06:11.230Z,13.60
2018-04-12T11:08:38.753Z,13.60
2018-04-12T11:11:06.314Z,13.70
2018-04-12T11:13:33.966Z,13.70
2018-04-12T11:16:01.489Z,13.80
2018-04-12T11:18:29.045Z,14.10
2018-04-12T11:20:57.249Z,14.30
2018-04-12T11:23:24.753Z,14.30
2018-04-12T11:25:52.223Z,14.30
2018-04-12T11:28:19.731Z,14.20
2018-04-12T11:30:47.964Z,14.30
2018-04-12T11:33:16.224Z,14.30
2018-04-12T11:35:43.716Z,14.50
2018-04-12T11:38:11.190Z,14.60
2018-04-12T11:40:38.659Z,14.80
2018-04-12T11:43:07.338Z,15.00
2018-04-12T11:45:34.831Z,15.00
2018-04-12T11:48:02.307Z,15.10
2018-04-12T11:50:29.833Z,15.30
2018-04-12T11:52:57.374Z,15.30
2018-04-12T11:55:24.845Z,15.40
2018-04-12T11:57:52.322Z,15.30
2018-04-12T12:00:19.812Z,15.20
2018-04-12T12:02:47.387Z,15.20
2018-04-12T12:05:15.721Z,14.90
2018-04-12T12:07:43.225Z,14.90
2018-04-12T12:10:10.808Z,14.90
2018-04-12T12:12:38.308Z,14.90
2018-04-12T12:15:05.809Z,14.90
2018-04-12T12:17:34.064Z,15.30
2018-04-12T12:20:01.563Z,15.30
2018-04-12T12:22:29.050Z,15.50
2018-04-12T12:24:56.578Z,15.50
2018-04-12T12:27:24.191Z,15.70
2018-04-12T12:29:51.676Z,15.50
2018-04-12T12:32:20.012Z,15.50
2018-04-12T12:34:47.515Z,15.50
2018-04-12T12:37:15.126Z,15.60
2018-04-12T12:39:42.645Z,15.70
2018-04-12T12:42:10.280Z,15.70
2018-04-12T12:44:37.856Z,15.60
2018-04-12T12:47:05.402Z,15.60
2018-04-12T12:49:32.913Z,15.30
2018-04-12T12:52:00.422Z,15.30
2018-04-12T12:54:28.677Z,15.10
2018-04-12T12:56:56.134Z,15.10
2018-04-12T12:59:23.748Z,15.00
2018-04-12T13:01:51.273Z,14.90
2018-04-12T13:04:18.799Z,14.90
2018-04-12T13:06:46.541Z,14.90
2018-04-12T13:09:14.061Z,14.80
2018-04-12T13:11:42.281Z,14.60
2018-04-12T13:14:09.757Z,14.60
2018-04-12T13:16:37.325Z,14.50
2018-04-12T13:19:04.802Z,14.50
2018-04-12T13:21:32.289Z,14.50
2018-04-12T13:23:59.773Z,14.60
2018-04-12T13:26:27.300Z,14.60
2018-04-12T13:28:54.913Z,14.70
2018-04-12T13:31:22.377Z,14.70
2018-04-12T13:33:49.833Z,14.80
2018-04-12T13:36:17.312Z,14.70
2018-04-12T13:38:45.741Z,14.90
2018-04-12T13:41:13.249Z,14.90
2018-04-12T13:43:40.791Z,14.90
2018-04-12T13:46:08.257Z,14.80
2018-04-12T13:48:36.530Z,14.80
2018-04-12T13:51:04.947Z,14.80
2018-04-12T13:53:32.597Z,14.70
2018-04-12T13:56:00.101Z,14.70
2018-04-12T13:58:27.572Z,14.80
2018-04-12T14:00:55.066Z,14.60
2018-04-12T14:03:23.311Z,14.70
2018-04-12T14:05:50.792Z,14.70
2018-04-12T14:08:19.041Z,14.80
2018-04-12T14:10:46.549Z,14.80
2018-04-12T14:13:14.844Z,14.90
2018-04-12T14:15:42.417Z,14.90
2018-04-12T14:18:09.931Z,14.90
2018-04-12T14:20:37.427Z,14.90
2018-04-12T14:23:04.977Z,15.10
2018-04-12T14:25:32.495Z,15.20
2018-04-12T14:27:59.933Z,15.30
2018-04-12T14:30:27.414Z,15.30
2018-04-12T14:32:55.683Z,15.30
2018-04-12T14:35:23.157Z,15.30
2018-04-12T14:37:50.647Z,15.30
2018-04-12T14:40:18.160Z,15.40
2018-04-12T14:42:45.632Z,15.50
2018-04-12T14:45:13.126Z,15.40
2018-04-12T14:47:40.600Z,15.50
2018-04-12T14:50:08.068Z,15.30
2018-04-12T14:52:35.545Z,15.20
2018-04-12T14:55:03.033Z,15.20
2018-04-12T14:57:30.635Z,15.20
2018-04-12T14:59:58.121Z,15.00
2018-04-12T15:02:25.710Z,15.00
2018-04-12T15:04:53.230Z,14.90
2018-04-12T15:07:20.717Z,15.00
2018-04-12T15:09:48.250Z,15.00
2018-04-12T15:12:15.765Z,15.10
2018-04-12T15:14:43.278Z,15.30
2018-04-12T15:17:10.750Z,15.30
2018-04-12T15:19:38.240Z,15.30
2018-04-12T15:22:05.724Z,15.20
2018-04-12T15:24:33.973Z,15.30
2018-04-12T15:27:01.442Z,15.30
2018-04-12T15:29:28.918Z,15.40
2018-04-12T15:31:56.399Z,15.40
2018-04-12T15:34:23.876Z,15.50
2018-04-12T15:36:51.344Z,15.40
2018-04-12T15:39:18.831Z,15.40
2018-04-12T15:41:46.307Z,15.50
2018-04-12T15:44:14.548Z,15.70
2018-04-12T15:46:42.038Z,15.70
2018-04-12T15:49:09.530Z,15.70
2018-04-12T15:51:37.036Z,15.70
2018-04-12T15:54:04.575Z,15.70
2018-04-12T15:56:32.041Z,15.70
2018-04-12T15:58:59.541Z,15.80
2018-04-12T16:01:27.898Z,15.80
2018-04-12T16:03:55.425Z,15.90
2018-04-12T16:06:22.918Z,15.90
2018-04-12T16:08:51.177Z,16.20
2018-04-12T16:11:18.665Z,16.10
2018-04-12T16:13:46.144Z,16.20
2018-04-12T16:16:13.652Z,16.20
2018-04-12T16:18:41.132Z,16.10
2018-04-12T16:21:08.625Z,15.90
2018-04-12T16:23:36.084Z,15.80
2018-04-12T16:26:03.599Z,15.60
2018-04-12T16:28:31.870Z,15.40
2018-04-12T16:30:59.325Z,15.40
2018-04-12T16:33:26.817Z,15.30
2018-04-12T16:35:54.294Z,15.00
2018-04-12T16:38:21.790Z,14.90
2018-04-12T16:40:49.263Z,14.80
2018-04-12T16:43:17.505Z,14.80
2018-04-12T16:45:44.975Z,14.80
2018-04-12T16:48:13.232Z,14.70
2018-04-12T16:50:40.747Z,14.60
2018-04-12T16:53:08.219Z,14.50
2018-04-12T16:55:35.720Z,14.40
2018-04-12T16:58:03.237Z,14.20
2018-04-12T17:00:30.724Z,14.20
2018-04-12T17:02:58.203Z,14.10
2018-04-12T17:05:25.690Z,14.00
2018-04-12T17:07:53.201Z,13.80
2018-04-12T17:10:20.687Z,13.80
2018-04-12T17:12:48.908Z,13.60
2018-04-12T17:15:16.407Z,13.60
2018-04-12T17:17:43.870Z,13.50
2018-04-12T17:20:11.361Z,13.50
2018-04-12T17:22:38.846Z,13.40
2018-04-12T17:25:06.321Z,13.30
2018-04-12T17:27:33.804Z,13.20
2018-04-12T17:30:01.301Z,13.00
2018-04-12T17:32:28.797Z,12.80
2018-04-12T17:34:56.294Z,12.70
2018-04-12T17:37:24.537Z,12.50
2018-04-12T17:39:52.005Z,12.60
2018-04-12T17:42:19.482Z,12.50
2018-04-12T17:44:46.972Z,12.40
2018-04-12T17:47:14.468Z,12.30
2018-04-12T17:49:41.943Z,12.20
2018-04-12T17:52:10.183Z,11.90
2018-04-12T17:54:37.756Z,11.90
2018-04-12T17:57:05.256Z,11.90
2018-04-12T17:59:32.736Z,11.60
2018-04-12T18:02:00.223Z,11.50
2018-04-12T18:04:27.712Z,11.30
2018-04-12T18:06:55.281Z,11.20
2018-04-12T18:09:22.741Z,11.20
2018-04-12T18:11:50.233Z,11.10
2018-04-12T18:14:17.709Z,11.00
2018-04-12T18:16:45.242Z,10.80
2018-04-12T18:19:12.804Z,10.70
2018-04-12T18:21:40.293Z,10.60
2018-04-12T18:24:07.771Z,10.60
2018-04-12T18:26:35.280Z,10.60
2018-04-12T18:29:02.752Z,10.50
2018-04-12T18:31:30.228Z,10.50
2018-04-12T18:33:57.696Z,10.30
2018-04-12T18:36:25.169Z,10.30
2018-04-12T18:38:52.663Z,10.30
2018-04-12T18:41:21.056Z,10.20
2018-04-12T18:43:48.520Z,10.20
2018-04-12T18:46:16.011Z,10.10
2018-04-12T18:48:43.476Z,10.20
2018-04-12T18:51:11.732Z,10.10
2018-04-12T18:53:39.247Z,10.10
2018-04-12T18:56:06.741Z,10.10
2018-04-12T18:58:34.259Z,10.10
2018-04-12T19:01:01.755Z,10.00
2018-04-12T19:03:29.238Z,10.00
2018-04-12T19:05:57.484Z,9.90
2018-04-12T19:08:25.165Z,9.80
2018-04-12T19:10:52.645Z,9.80
2018-04-12T19:13:20.100Z,9.80
2018-04-12T19:15:47.566Z,9.70
2018-04-12T19:18:15.690Z,9.70
2018-04-12T19:20:44.455Z,9.60
2018-04-12T19:23:12.028Z,9.60
2018-04-12T19:25:39.488Z,9.70
2018-04-12T19:28:06.985Z,9.60
2018-04-12T19:30:34.441Z,9.60
2018-04-12T19:33:02.775Z,9.50
2018-04-12T19:35:30.252Z,9.50
2018-04-12T19:37:57.748Z,9.50
2018-04-12T19:40:25.200Z,9.50
2018-04-12T19:42:52.671Z,9.50
2018-04-12T19:45:20.131Z,9.50
2018-04-12T19:47:47.627Z,9.60
2018-04-12T19:50:15.209Z,9.50
2018-04-12T19:52:43.568Z,9.50
2018-04-12T19:55:11.076Z,9.50
2018-04-12T19:57:38.605Z,9.50
2018-04-12T20:00:06.124Z,9.50
2018-04-12T20:02:33.585Z,9.50
2018-04-12T20:05:01.393Z,9.50
2018-04-12T20:07:29.716Z,9.50
2018-04-12T20:09:57.265Z,9.40
2018-04-12T20:12:24.737Z,9.40
2018-04-12T20:14:52.184Z,9.40
2018-04-12T20:17:19.696Z,9.40
2018-04-12T20:19:48.023Z,9.40
2018-04-12T20:22:15.496Z,9.40
2018-04-12T20:24:42.970Z,9.50
2018-04-12T20:27:10.449Z,9.40
2018-04-12T20:29:37.924Z,9.40
2018-04-12T20:32:05.489Z,9.40
2018-04-12T20:34:32.964Z,9.40
2018-04-12T20:37:00.449Z,9.40
2018-04-12T20:39:28.134Z,9.40
2018-04-12T20:41:55.817Z,9.40
2018-04-12T20:44:24.133Z,9.30
2018-04-12T20:46:51.600Z,9.30
2018-04-12T20:49:19.048Z,9.30
2018-04-12T20:51:47.678Z,9.30
2018-04-12T20:54:15.431Z,9.20
2018-04-12T20:56:43.684Z,9.20
2018-04-12T20:59:11.178Z,9.20
2018-04-12T21:01:38.650Z,9.20
2018-04-12T21:04:06.176Z,9.30
2018-04-12T21:06:33.973Z,9.20
2018-04-12T21:09:01.457Z,9.20
2018-04-12T21:11:28.945Z,9.20
2018-04-12T21:13:56.404Z,9.20
2018-04-12T21:16:23.857Z,9.30
2018-04-12T21:18:52.207Z,9.20
2018-04-12T21:21:19.679Z,9.20
2018-04-12T21:23:47.148Z,9.30
2018-04-12T21:26:14.601Z,9.30
2018-04-12T21:28:42.059Z,9.30
2018-04-12T21:31:09.524Z,9.20
2018-04-12T21:33:37.045Z,9.20
2018-04-12T21:36:04.504Z,9.20
2018-04-12T21:38:31.964Z,9.30
2018-04-12T21:40:59.436Z,9.20
2018-04-12T21:43:26.911Z,9.10
2018-04-12T21:45:54.410Z,9.10
2018-04-12T21:48:21.871Z,9.20
2018-04-12T21:50:49.360Z,9.20
2018-04-12T21:53:16.832Z,9.20
2018-04-12T21:55:44.383Z,9.30
2018-04-12T21:58:11.845Z,9.10
2018-04-12T22:00:39.309Z,9.20
2018-04-12T22:03:06.776Z,9.20
2018-04-12T22:05:34.246Z,9.20
2018-04-12T22:08:02.472Z,9.20
2018-04-12T22:10:29.995Z,9.10
2018-04-12T22:12:57.443Z,9.10
2018-04-12T22:15:24.898Z,9.10
2018-04-12T22:17:53.152Z,9.20
2018-04-12T22:20:20.608Z,9.20
2018-04-12T22:22:48.073Z,9.20
2018-04-12T22:25:15.554Z,9.20
2018-04-12T22:27:43.036Z,9.20
2018-04-12T22:30:10.508Z,9.10
2018-04-12T22:32:37.974Z,9.10
2018-04-12T22:35:05.443Z,9.10
2018-04-12T22:37:32.900Z,9.10
2018-04-12T22:40:00.394Z,9.10
2018-04-12T22:42:27.852Z,9.00
2018-04-12T22:44:55.321Z,9.10
2018-04-12T22:47:22.778Z,9.10
2018-04-12T22:49:50.235Z,9.10
2018-04-12T22:52:18.449Z,9.00
2018-04-12T22:54:45.900Z,9.00
2018-04-12T22:57:13.362Z,9.00
2018-04-12T22:59:40.831Z,9.10
2018-04-12T23:02:08.319Z,9.00
2018-04-12T23:04:36.557Z,9.00
2018-04-12T23:07:04.029Z,9.00
2018-04-12T23:09:32.258Z,9.00
2018-04-12T23:11:59.712Z,9.00
2018-04-12T23:14:27.174Z,9.10
2018-04-12T23:16:54.641Z,9.20
2018-04-12T23:19:22.108Z,9.20
2018-04-12T23:21:49.577Z,9.20
2018-04-12T23:24:17.049Z,9.20
2018-04-12T23:26:45.276Z,9.30
2018-04-12T23:29:12.736Z,9.30
2018-04-12T23:31:40.188Z,9.30
2018-04-12T23:34:07.678Z,9.40
2018-04-12T23:36:35.152Z,9.30
2018-04-12T23:39:02.605Z,9.40
2018-04-12T23:41:30.062Z,9.50
2018-04-12T23:43:57.508Z,9.60
2018-04-12T23:46:24.976Z,9.50
2018-04-12T23:48:53.446Z,9.40
2018-04-12T23:51:20.934Z,9.40
2018-04-12T23:53:48.479Z,9.30
2018-04-12T23:56:16.779Z,9.20
2018-04-12T23:58:44.709Z,9.20
